sensor_id;sensor_type;location;lat;lon;timestamp;P1;durP1;ratioP1;P2;durP2;ratioP2
23490;SDS011;14683;50.038;8.078;2023-08-24T03:00:49;4.20;;;2.60;;
23490;SDS011;14683;50.038;8.078;2023-08-24T03:03:50;5.00;;;3.10;;
23490;SDS011;14683;50.038;8.078;2023-08-24T03:06:51;4.30;;;2.70;;
23490;SDS011;14683;50.038;8.078;2023-08-24T03:09:53;3.20;;;2.88;;
23490;SDS011;14683;50.038;8.078;2023-08-24T03:12:54;4.15;;;3.17;;
23490;SDS011;14683;50.038;8.078;2023-08-24T03:15:56;3.65;;;2.75;;
23490;SDS011;14683;50.038;8.078;2023-08-24T03:19:02;5.03;;;2.90;;
23490;SDS011;14683;50.038;8.078;2023-08-24T03:22:03;6.57;;;3.05;;
23490;SDS011;14683;50.038;8.078;2023-08-24T03:25:04;5.28;;;3.10;;
23490;SDS011;14683;50.038;8.078;2023-08-24T03:28:07;2.95;;;2.75;;
23490;SDS011;14683;50.038;8.078;2023-08-24T03:31:08;4.30;;;3.17;;
23490;SDS011;14683;50.038;8.078;2023-08-24T03:34:10;3.45;;;2.70;;
23490;SDS011;14683;50.038;8.078;2023-08-24T03:37:11;2.90;;;2.65;;
23490;SDS011;14683;50.038;8.078;2023-08-24T03:40:12;3.10;;;2.80;;
23490;SDS011;14683;50.038;8.078;2023-08-24T03:43:13;6.07;;;3.13;;
23490;SDS011;14683;50.038;8.078;2023-08-24T03:46:15;4.45;;;2.95;;
23490;SDS011;14683;50.038;8.078;2023-08-24T03:49:18;3.15;;;2.88;;
23490;SDS011;14683;50.038;8.078;2023-08-24T03:52:19;5.15;;;3.58;;
23490;SDS011;14683;50.038;8.078;2023-08-24T03:55:20;3.78;;;3.00;;
23490;SDS011;14683;50.038;8.078;2023-08-24T03:58:22;4.00;;;2.70;;
23490;SDS011;14683;50.038;8.078;2023-08-24T04:01:23;5.28;;;3.17;;
23490;SDS011;14683;50.038;8.078;2023-08-24T04:04:24;5.10;;;2.90;;
23490;SDS011;14683;50.038;8.078;2023-08-24T04:07:25;3.00;;;2.72;;
23490;SDS011;14683;50.038;8.078;2023-08-24T04:10:27;3.30;;;3.00;;
23490;SDS011;14683;50.038;8.078;2023-08-24T04:13:28;3.95;;;2.92;;
23490;SDS011;14683;50.038;8.078;2023-08-24T04:16:29;5.47;;;3.10;;
23490;SDS011;14683;50.038;8.078;2023-08-24T04:19:30;4.25;;;2.70;;
23490;SDS011;14683;50.038;8.078;2023-08-24T04:22:32;3.65;;;3.05;;
23490;SDS011;14683;50.038;8.078;2023-08-24T04:25:33;3.35;;;2.97;;
23490;SDS011;14683;50.038;8.078;2023-08-24T04:28:34;3.00;;;2.75;;
23490;SDS011;14683;50.038;8.078;2023-08-24T04:31:35;3.50;;;2.90;;
23490;SDS011;14683;50.038;8.078;2023-08-24T04:34:38;3.83;;;2.90;;
23490;SDS011;14683;50.038;8.078;2023-08-24T04:37:39;5.20;;;3.08;;
23490;SDS011;14683;50.038;8.078;2023-08-24T04:40:48;5.53;;;3.30;;
23490;SDS011;14683;50.038;8.078;2023-08-24T04:43:54;4.85;;;3.25;;
23490;SDS011;14683;50.038;8.078;2023-08-24T04:46:55;7.18;;;3.20;;
23490;SDS011;14683;50.038;8.078;2023-08-24T04:49:56;5.50;;;3.53;;
23490;SDS011;14683;50.038;8.078;2023-08-24T04:52:58;5.82;;;3.38;;
23490;SDS011;14683;50.038;8.078;2023-08-24T04:55:59;4.72;;;3.25;;
23490;SDS011;14683;50.038;8.078;2023-08-24T04:59:00;5.25;;;3.78;;
23490;SDS011;14683;50.038;8.078;2023-08-24T05:02:03;4.05;;;3.30;;
23490;SDS011;14683;50.038;8.078;2023-08-24T05:05:04;3.60;;;3.22;;
23490;SDS011;14683;50.038;8.078;2023-08-24T05:08:06;5.20;;;3.20;;
23490;SDS011;14683;50.038;8.078;2023-08-24T05:11:11;3.63;;;3.33;;
23490;SDS011;14683;50.038;8.078;2023-08-24T05:14:17;4.97;;;3.30;;
23490;SDS011;14683;50.038;8.078;2023-08-24T05:17:19;5.32;;;3.22;;
23490;SDS011;14683;50.038;8.078;2023-08-24T05:20:21;5.75;;;3.22;;
23490;SDS011;14683;50.038;8.078;2023-08-24T05:23:24;4.53;;;3.08;;
23490;SDS011;14683;50.038;8.078;2023-08-24T05:26:25;4.72;;;3.30;;
23490;SDS011;14683;50.038;8.078;2023-08-24T05:29:27;4.70;;;3.30;;
23490;SDS011;14683;50.038;8.078;2023-08-24T05:32:28;3.58;;;2.85;;
23490;SDS011;14683;50.038;8.078;2023-08-24T05:35:29;4.05;;;2.90;;
23490;SDS011;14683;50.038;8.078;2023-08-24T05:38:30;4.07;;;3.30;;
23490;SDS011;14683;50.038;8.078;2023-08-24T05:41:31;7.18;;;3.20;;
23490;SDS011;14683;50.038;8.078;2023-08-24T05:44:32;5.93;;;3.30;;
23490;SDS011;14683;50.038;8.078;2023-08-24T05:47:33;3.90;;;3.08;;
23490;SDS011;14683;50.038;8.078;2023-08-24T05:50:35;4.93;;;2.78;;
23490;SDS011;14683;50.038;8.078;2023-08-24T05:53:38;5.32;;;2.95;;
23490;SDS011;14683;50.038;8.078;2023-08-24T05:56:41;3.20;;;2.83;;
23490;SDS011;14683;50.038;8.078;2023-08-24T05:59:42;5.72;;;3.35;;
23490;SDS011;14683;50.038;8.078;2023-08-24T06:02:43;4.93;;;3.38;;
23490;SDS011;14683;50.038;8.078;2023-08-24T06:05:44;5.60;;;3.40;;
23490;SDS011;14683;50.038;8.078;2023-08-24T06:08:46;3.95;;;3.55;;
23490;SDS011;14683;50.038;8.078;2023-08-24T06:11:47;4.10;;;3.03;;
23490;SDS011;14683;50.038;8.078;2023-08-24T06:14:48;3.47;;;2.55;;
23490;SDS011;14683;50.038;8.078;2023-08-24T06:17:50;4.93;;;3.90;;
23490;SDS011;14683;50.038;8.078;2023-08-24T06:20:51;4.55;;;2.65;;
23490;SDS011;14683;50.038;8.078;2023-08-24T06:23:52;4.68;;;3.17;;
23490;SDS011;14683;50.038;8.078;2023-08-24T06:26:53;4.00;;;2.85;;
23490;SDS011;14683;50.038;8.078;2023-08-24T06:29:55;3.50;;;2.63;;
23490;SDS011;14683;50.038;8.078;2023-08-24T06:32:56;6.57;;;3.08;;
23490;SDS011;14683;50.038;8.078;2023-08-24T06:35:57;2.83;;;2.58;;
23490;SDS011;14683;50.038;8.078;2023-08-24T06:38:59;4.32;;;3.30;;
23490;SDS011;14683;50.038;8.078;2023-08-24T06:42:00;5.85;;;4.15;;
23490;SDS011;14683;50.038;8.078;2023-08-24T06:45:05;6.13;;;3.20;;
23490;SDS011;14683;50.038;8.078;2023-08-24T06:48:07;7.00;;;3.70;;
23490;SDS011;14683;50.038;8.078;2023-08-24T06:51:09;6.68;;;3.45;;
23490;SDS011;14683;50.038;8.078;2023-08-24T06:54:11;5.18;;;3.53;;
23490;SDS011;14683;50.038;8.078;2023-08-24T06:57:12;6.68;;;3.30;;
23490;SDS011;14683;50.038;8.078;2023-08-24T07:00:13;6.20;;;3.38;;
23490;SDS011;14683;50.038;8.078;2023-08-24T07:03:16;5.80;;;3.50;;
23490;SDS011;14683;50.038;8.078;2023-08-24T07:06:17;6.28;;;3.30;;
23490;SDS011;14683;50.038;8.078;2023-08-24T07:09:19;5.65;;;3.75;;
23490;SDS011;14683;50.038;8.078;2023-08-24T07:12:20;3.45;;;2.97;;
23490;SDS011;14683;50.038;8.078;2023-08-24T07:15:21;5.70;;;3.03;;
23490;SDS011;14683;50.038;8.078;2023-08-24T07:18:22;4.85;;;3.25;;
23490;SDS011;14683;50.038;8.078;2023-08-24T07:21:24;7.32;;;4.00;;
23490;SDS011;14683;50.038;8.078;2023-08-24T07:24:25;6.97;;;3.78;;
23490;SDS011;14683;50.038;8.078;2023-08-24T07:27:27;5.18;;;3.72;;
23490;SDS011;14683;50.038;8.078;2023-08-24T07:30:29;6.43;;;3.55;;
23490;SDS011;14683;50.038;8.078;2023-08-24T07:33:31;3.67;;;3.38;;
23490;SDS011;14683;50.038;8.078;2023-08-24T07:36:33;7.40;;;4.22;;
23490;SDS011;14683;50.038;8.078;2023-08-24T07:39:34;7.00;;;3.90;;
23490;SDS011;14683;50.038;8.078;2023-08-24T07:42:48;5.72;;;3.95;;
23490;SDS011;14683;50.038;8.078;2023-08-24T07:45:51;4.93;;;3.60;;
23490;SDS011;14683;50.038;8.078;2023-08-24T07:48:53;7.88;;;4.05;;
23490;SDS011;14683;50.038;8.078;2023-08-24T07:51:55;6.13;;;4.25;;
23490;SDS011;14683;50.038;8.078;2023-08-24T07:54:57;4.53;;;4.10;;
23490;SDS011;14683;50.038;8.078;2023-08-24T07:58:01;3.75;;;3.45;;
23490;SDS011;14683;50.038;8.078;2023-08-24T08:01:02;6.85;;;4.18;;
23490;SDS011;14683;50.038;8.078;2023-08-24T08:04:03;5.72;;;4.00;;
23490;SDS011;14683;50.038;8.078;2023-08-24T08:07:04;6.05;;;3.85;;
23490;SDS011;14683;50.038;8.078;2023-08-24T08:10:05;5.88;;;3.53;;
23490;SDS011;14683;50.038;8.078;2023-08-24T08:13:07;5.07;;;3.55;;
23490;SDS011;14683;50.038;8.078;2023-08-24T08:16:09;3.95;;;3.58;;
23490;SDS011;14683;50.038;8.078;2023-08-24T08:19:10;5.97;;;3.85;;
23490;SDS011;14683;50.038;8.078;2023-08-24T08:22:12;5.65;;;3.55;;
23490;SDS011;14683;50.038;8.078;2023-08-24T08:25:13;4.35;;;3.80;;
23490;SDS011;14683;50.038;8.078;2023-08-24T08:28:14;4.35;;;3.95;;
23490;SDS011;14683;50.038;8.078;2023-08-24T08:31:15;5.55;;;4.63;;
23490;SDS011;14683;50.038;8.078;2023-08-24T08:34:16;4.90;;;4.25;;
23490;SDS011;14683;50.038;8.078;2023-08-24T08:37:18;6.30;;;5.00;;
23490;SDS011;14683;50.038;8.078;2023-08-24T08:40:19;6.38;;;4.35;;
23490;SDS011;14683;50.038;8.078;2023-08-24T08:43:23;7.40;;;4.75;;
23490;SDS011;14683;50.038;8.078;2023-08-24T08:46:25;7.05;;;4.78;;
23490;SDS011;14683;50.038;8.078;2023-08-24T08:49:29;6.68;;;4.47;;
23490;SDS011;14683;50.038;8.078;2023-08-24T08:52:31;6.03;;;4.60;;
23490;SDS011;14683;50.038;8.078;2023-08-24T08:55:33;9.00;;;4.75;;
23490;SDS011;14683;50.038;8.078;2023-08-24T08:58:34;8.70;;;4.97;;
23490;SDS011;14683;50.038;8.078;2023-08-24T09:01:37;10.02;;;4.63;;
23490;SDS011;14683;50.038;8.078;2023-08-24T09:04:38;9.45;;;5.13;;
23490;SDS011;14683;50.038;8.078;2023-08-24T09:07:40;5.75;;;4.30;;
23490;SDS011;14683;50.038;8.078;2023-08-24T09:10:41;7.97;;;4.47;;
23490;SDS011;14683;50.038;8.078;2023-08-24T09:13:42;9.30;;;4.85;;
23490;SDS011;14683;50.038;8.078;2023-08-24T09:16:47;7.95;;;4.50;;
23490;SDS011;14683;50.038;8.078;2023-08-24T09:19:49;4.95;;;4.00;;
23490;SDS011;14683;50.038;8.078;2023-08-24T09:22:57;7.22;;;3.83;;
23490;SDS011;14683;50.038;8.078;2023-08-24T09:25:58;6.22;;;3.97;;
23490;SDS011;14683;50.038;8.078;2023-08-24T09:29:00;5.97;;;4.05;;
23490;SDS011;14683;50.038;8.078;2023-08-24T09:32:02;8.82;;;3.60;;
23490;SDS011;14683;50.038;8.078;2023-08-24T09:35:05;7.13;;;3.90;;
23490;SDS011;14683;50.038;8.078;2023-08-24T09:41:19;6.10;;;3.33;;
23490;SDS011;14683;50.038;8.078;2023-08-24T09:44:21;5.18;;;2.75;;
23490;SDS011;14683;50.038;8.078;2023-08-24T09:47:22;3.03;;;2.80;;
23490;SDS011;14683;50.038;8.078;2023-08-24T09:50:23;7.93;;;3.17;;
23490;SDS011;14683;50.038;8.078;2023-08-24T09:53:24;5.95;;;2.88;;
23490;SDS011;14683;50.038;8.078;2023-08-24T09:56:25;3.28;;;2.63;;
23490;SDS011;14683;50.038;8.078;2023-08-24T09:59:29;3.97;;;2.65;;
23490;SDS011;14683;50.038;8.078;2023-08-24T10:02:32;4.38;;;2.78;;
23490;SDS011;14683;50.038;8.078;2023-08-24T10:05:38;3.70;;;2.50;;
23490;SDS011;14683;50.038;8.078;2023-08-24T10:08:42;5.53;;;2.80;;
23490;SDS011;14683;50.038;8.078;2023-08-24T10:11:48;4.43;;;2.92;;
23490;SDS011;14683;50.038;8.078;2023-08-24T10:14:59;4.10;;;2.70;;
23490;SDS011;14683;50.038;8.078;2023-08-24T10:18:03;3.55;;;2.60;;
23490;SDS011;14683;50.038;8.078;2023-08-24T10:21:07;2.55;;;2.30;;
23490;SDS011;14683;50.038;8.078;2023-08-24T10:24:09;3.40;;;2.53;;
23490;SDS011;14683;50.038;8.078;2023-08-24T10:27:10;5.30;;;2.72;;
23490;SDS011;14683;50.038;8.078;2023-08-24T10:30:12;3.20;;;2.90;;
23490;SDS011;14683;50.038;8.078;2023-08-24T10:33:14;5.93;;;2.67;;
23490;SDS011;14683;50.038;8.078;2023-08-24T10:36:16;4.72;;;2.92;;
23490;SDS011;14683;50.038;8.078;2023-08-24T10:39:26;4.35;;;2.78;;
23490;SDS011;14683;50.038;8.078;2023-08-24T10:42:28;7.70;;;4.05;;
23490;SDS011;14683;50.038;8.078;2023-08-24T10:45:53;5.05;;;3.28;;
23490;SDS011;14683;50.038;8.078;2023-08-24T10:48:59;3.63;;;2.65;;
23490;SDS011;14683;50.038;8.078;2023-08-24T10:52:16;3.85;;;2.92;;
23490;SDS011;14683;50.038;8.078;2023-08-24T10:55:39;3.43;;;2.63;;
23490;SDS011;14683;50.038;8.078;2023-08-24T10:58:41;7.68;;;2.83;;
23490;SDS011;14683;50.038;8.078;2023-08-24T11:01:43;4.53;;;2.85;;
23490;SDS011;14683;50.038;8.078;2023-08-24T11:05:07;4.05;;;2.42;;
23490;SDS011;14683;50.038;8.078;2023-08-24T11:12:14;3.67;;;2.83;;
23490;SDS011;14683;50.038;8.078;2023-08-24T11:15:24;4.03;;;2.78;;
23490;SDS011;14683;50.038;8.078;2023-08-24T11:18:30;3.67;;;2.42;;
23490;SDS011;14683;50.038;8.078;2023-08-24T11:21:31;4.40;;;2.63;;
23490;SDS011;14683;50.038;8.078;2023-08-24T11:24:34;2.65;;;2.45;;
23490;SDS011;14683;50.038;8.078;2023-08-24T11:27:36;3.95;;;2.70;;
23490;SDS011;14683;50.038;8.078;2023-08-24T11:30:38;3.20;;;2.60;;
23490;SDS011;14683;50.038;8.078;2023-08-24T11:33:39;3.60;;;2.90;;
23490;SDS011;14683;50.038;8.078;2023-08-24T11:36:47;5.05;;;2.92;;
23490;SDS011;14683;50.038;8.078;2023-08-24T11:39:48;4.32;;;2.90;;
23490;SDS011;14683;50.038;8.078;2023-08-24T11:42:52;3.33;;;2.80;;
23490;SDS011;14683;50.038;8.078;2023-08-24T11:45:54;3.83;;;2.75;;
23490;SDS011;14683;50.038;8.078;2023-08-24T11:48:56;3.80;;;2.40;;
23490;SDS011;14683;50.038;8.078;2023-08-24T11:51:58;3.28;;;2.45;;
23490;SDS011;14683;50.038;8.078;2023-08-24T11:55:00;3.35;;;3.05;;
23490;SDS011;14683;50.038;8.078;2023-08-24T11:58:01;3.97;;;2.88;;
23490;SDS011;14683;50.038;8.078;2023-08-24T12:01:02;3.13;;;2.80;;
23490;SDS011;14683;50.038;8.078;2023-08-24T12:04:04;5.43;;;2.80;;
23490;SDS011;14683;50.038;8.078;2023-08-24T12:07:09;2.67;;;2.40;;
23490;SDS011;14683;50.038;8.078;2023-08-24T12:10:12;3.33;;;2.35;;
23490;SDS011;14683;50.038;8.078;2023-08-24T12:13:13;3.10;;;2.70;;
23490;SDS011;14683;50.038;8.078;2023-08-24T12:16:18;7.90;;;2.90;;
23490;SDS011;14683;50.038;8.078;2023-08-24T12:19:21;5.15;;;2.78;;
23490;SDS011;14683;50.038;8.078;2023-08-24T12:22:23;3.00;;;2.70;;
23490;SDS011;14683;50.038;8.078;2023-08-24T12:25:25;4.47;;;2.70;;
23490;SDS011;14683;50.038;8.078;2023-08-24T12:28:26;5.65;;;3.10;;
23490;SDS011;14683;50.038;8.078;2023-08-24T12:31:30;5.05;;;3.03;;
23490;SDS011;14683;50.038;8.078;2023-08-24T12:34:31;3.75;;;2.63;;
23490;SDS011;14683;50.038;8.078;2023-08-24T12:37:32;3.22;;;2.80;;
23490;SDS011;14683;50.038;8.078;2023-08-24T12:40:35;4.82;;;3.40;;
23490;SDS011;14683;50.038;8.078;2023-08-24T12:43:36;4.18;;;2.90;;
23490;SDS011;14683;50.038;8.078;2023-08-24T12:46:37;6.30;;;2.90;;
23490;SDS011;14683;50.038;8.078;2023-08-24T12:49:38;3.85;;;2.92;;
23490;SDS011;14683;50.038;8.078;2023-08-24T12:52:40;5.40;;;2.80;;
23490;SDS011;14683;50.038;8.078;2023-08-24T12:55:41;4.10;;;2.83;;
23490;SDS011;14683;50.038;8.078;2023-08-24T12:58:42;4.60;;;2.80;;
23490;SDS011;14683;50.038;8.078;2023-08-24T13:01:43;5.43;;;3.30;;
23490;SDS011;14683;50.038;8.078;2023-08-24T13:04:44;6.10;;;3.10;;
23490;SDS011;14683;50.038;8.078;2023-08-24T13:07:45;7.65;;;2.92;;
23490;SDS011;14683;50.038;8.078;2023-08-24T13:10:46;6.13;;;3.22;;
23490;SDS011;14683;50.038;8.078;2023-08-24T13:13:48;4.90;;;3.30;;
23490;SDS011;14683;50.038;8.078;2023-08-24T13:16:49;4.28;;;2.90;;
23490;SDS011;14683;50.038;8.078;2023-08-24T13:19:50;5.05;;;3.67;;
23490;SDS011;14683;50.038;8.078;2023-08-24T13:22:52;4.72;;;2.80;;
23490;SDS011;14683;50.038;8.078;2023-08-24T13:25:53;8.48;;;3.00;;
23490;SDS011;14683;50.038;8.078;2023-08-24T13:28:58;5.30;;;3.00;;
23490;SDS011;14683;50.038;8.078;2023-08-24T13:31:59;5.70;;;3.10;;
23490;SDS011;14683;50.038;8.078;2023-08-24T13:35:00;5.53;;;3.00;;
23490;SDS011;14683;50.038;8.078;2023-08-24T13:38:02;4.82;;;2.60;;
23490;SDS011;14683;50.038;8.078;2023-08-24T13:41:03;4.95;;;3.60;;
23490;SDS011;14683;50.038;8.078;2023-08-24T13:44:04;4.60;;;2.97;;
23490;SDS011;14683;50.038;8.078;2023-08-24T13:47:06;5.68;;;2.92;;
23490;SDS011;14683;50.038;8.078;2023-08-24T13:50:07;4.05;;;2.95;;
23490;SDS011;14683;50.038;8.078;2023-08-24T13:53:08;5.30;;;2.90;;
23490;SDS011;14683;50.038;8.078;2023-08-24T13:56:09;4.25;;;2.78;;
23490;SDS011;14683;50.038;8.078;2023-08-24T13:59:11;3.92;;;3.17;;
23490;SDS011;14683;50.038;8.078;2023-08-24T14:02:13;5.15;;;2.92;;
23490;SDS011;14683;50.038;8.078;2023-08-24T14:05:14;7.10;;;3.30;;
23490;SDS011;14683;50.038;8.078;2023-08-24T14:08:15;4.78;;;3.17;;
23490;SDS011;14683;50.038;8.078;2023-08-24T14:11:16;3.92;;;3.33;;
23490;SDS011;14683;50.038;8.078;2023-08-24T14:14:17;6.00;;;3.22;;
23490;SDS011;14683;50.038;8.078;2023-08-24T14:17:18;6.72;;;4.03;;
23490;SDS011;14683;50.038;8.078;2023-08-24T14:20:20;4.47;;;3.78;;
23490;SDS011;14683;50.038;8.078;2023-08-24T14:23:21;3.60;;;3.10;;
23490;SDS011;14683;50.038;8.078;2023-08-24T14:26:22;3.50;;;3.15;;
23490;SDS011;14683;50.038;8.078;2023-08-24T14:29:23;4.75;;;3.55;;
23490;SDS011;14683;50.038;8.078;2023-08-24T14:32:24;3.53;;;3.25;;
23490;SDS011;14683;50.038;8.078;2023-08-24T14:35:25;4.85;;;3.50;;
23490;SDS011;14683;50.038;8.078;2023-08-24T14:38:26;3.13;;;2.88;;
23490;SDS011;14683;50.038;8.078;2023-08-24T14:41:27;4.72;;;3.17;;
23490;SDS011;14683;50.038;8.078;2023-08-24T14:44:29;3.17;;;2.83;;
23490;SDS011;14683;50.038;8.078;2023-08-24T14:47:30;4.20;;;2.90;;
23490;SDS011;14683;50.038;8.078;2023-08-24T14:50:31;5.05;;;3.65;;
23490;SDS011;14683;50.038;8.078;2023-08-24T14:53:32;6.82;;;3.20;;
23490;SDS011;14683;50.038;8.078;2023-08-24T14:56:33;7.30;;;3.47;;
23490;SDS011;14683;50.038;8.078;2023-08-24T14:59:34;5.63;;;3.50;;
23490;SDS011;14683;50.038;8.078;2023-08-24T15:02:39;4.25;;;3.25;;
23490;SDS011;14683;50.038;8.078;2023-08-24T15:05:43;3.95;;;3.65;;
23490;SDS011;14683;50.038;8.078;2023-08-24T15:08:48;4.40;;;3.80;;
23490;SDS011;14683;50.038;8.078;2023-08-24T15:11:49;5.10;;;3.83;;
23490;SDS011;14683;50.038;8.078;2023-08-24T15:14:57;5.53;;;3.40;;
23490;SDS011;14683;50.038;8.078;2023-08-24T15:18:06;4.80;;;3.45;;
23490;SDS011;14683;50.038;8.078;2023-08-24T15:21:07;5.97;;;3.53;;
23490;SDS011;14683;50.038;8.078;2023-08-24T15:24:08;5.70;;;3.88;;
23490;SDS011;14683;50.038;8.078;2023-08-24T15:27:10;3.75;;;3.42;;
23490;SDS011;14683;50.038;8.078;2023-08-24T15:30:14;4.18;;;3.47;;
23490;SDS011;14683;50.038;8.078;2023-08-24T15:33:16;7.07;;;3.60;;
23490;SDS011;14683;50.038;8.078;2023-08-24T15:36:18;4.72;;;3.45;;
23490;SDS011;14683;50.038;8.078;2023-08-24T15:39:22;5.50;;;3.42;;
23490;SDS011;14683;50.038;8.078;2023-08-24T15:42:24;4.85;;;3.05;;
23490;SDS011;14683;50.038;8.078;2023-08-24T15:45:28;3.85;;;3.03;;
23490;SDS011;14683;50.038;8.078;2023-08-24T15:48:30;4.25;;;3.60;;
23490;SDS011;14683;50.038;8.078;2023-08-24T15:51:31;5.35;;;3.60;;
23490;SDS011;14683;50.038;8.078;2023-08-24T15:54:32;3.45;;;3.08;;
23490;SDS011;14683;50.038;8.078;2023-08-24T15:57:33;5.10;;;3.58;;
23490;SDS011;14683;50.038;8.078;2023-08-24T16:00:34;8.50;;;3.95;;
23490;SDS011;14683;50.038;8.078;2023-08-24T16:03:36;5.45;;;3.58;;
23490;SDS011;14683;50.038;8.078;2023-08-24T16:06:37;4.80;;;3.90;;
23490;SDS011;14683;50.038;8.078;2023-08-24T16:09:38;4.07;;;3.45;;
23490;SDS011;14683;50.038;8.078;2023-08-24T16:12:40;4.07;;;3.70;;
23490;SDS011;14683;50.038;8.078;2023-08-24T16:15:41;5.70;;;3.75;;
23490;SDS011;14683;50.038;8.078;2023-08-24T16:18:42;4.18;;;3.40;;
23490;SDS011;14683;50.038;8.078;2023-08-24T16:21:43;5.18;;;4.10;;
23490;SDS011;14683;50.038;8.078;2023-08-24T16:24:44;4.97;;;4.30;;
23490;SDS011;14683;50.038;8.078;2023-08-24T16:27:45;6.03;;;4.13;;
23490;SDS011;14683;50.038;8.078;2023-08-24T16:30:47;4.43;;;4.10;;
23490;SDS011;14683;50.038;8.078;2023-08-24T16:33:49;4.10;;;3.80;;
23490;SDS011;14683;50.038;8.078;2023-08-24T16:36:50;4.38;;;4.03;;
23490;SDS011;14683;50.038;8.078;2023-08-24T16:39:51;4.97;;;4.28;;
23490;SDS011;14683;50.038;8.078;2023-08-24T16:42:52;4.32;;;3.90;;
23490;SDS011;14683;50.038;8.078;2023-08-24T16:45:53;7.75;;;5.03;;
23490;SDS011;14683;50.038;8.078;2023-08-24T16:48:54;4.85;;;4.45;;
23490;SDS011;14683;50.038;8.078;2023-08-24T16:51:55;5.78;;;4.53;;
23490;SDS011;14683;50.038;8.078;2023-08-24T16:54:56;4.35;;;4.00;;
23490;SDS011;14683;50.038;8.078;2023-08-24T16:57:57;4.30;;;3.90;;
23490;SDS011;14683;50.038;8.078;2023-08-24T17:01:08;5.38;;;3.63;;
23490;SDS011;14683;50.038;8.078;2023-08-24T17:04:10;6.47;;;4.20;;
23490;SDS011;14683;50.038;8.078;2023-08-24T17:07:12;4.45;;;3.58;;
23490;SDS011;14683;50.038;8.078;2023-08-24T17:10:13;4.50;;;3.67;;
23490;SDS011;14683;50.038;8.078;2023-08-24T17:13:14;4.78;;;3.63;;
23490;SDS011;14683;50.038;8.078;2023-08-24T17:16:16;7.05;;;4.05;;
23490;SDS011;14683;50.038;8.078;2023-08-24T17:19:20;8.75;;;4.82;;
23490;SDS011;14683;50.038;8.078;2023-08-24T17:22:22;4.47;;;4.07;;
23490;SDS011;14683;50.038;8.078;2023-08-24T17:25:23;5.35;;;4.45;;
23490;SDS011;14683;50.038;8.078;2023-08-24T17:28:24;6.00;;;4.75;;
23490;SDS011;14683;50.038;8.078;2023-08-24T17:31:25;7.85;;;4.50;;
23490;SDS011;14683;50.038;8.078;2023-08-24T17:34:26;6.68;;;4.90;;
23490;SDS011;14683;50.038;8.078;2023-08-24T17:37:27;7.18;;;4.47;;
23490;SDS011;14683;50.038;8.078;2023-08-24T17:40:29;6.68;;;4.75;;
23490;SDS011;14683;50.038;8.078;2023-08-24T17:43:30;5.93;;;4.22;;
23490;SDS011;14683;50.038;8.078;2023-08-24T17:46:33;8.55;;;4.65;;
23490;SDS011;14683;50.038;8.078;2023-08-24T17:49:35;7.72;;;4.38;;
23490;SDS011;14683;50.038;8.078;2023-08-24T17:52:36;5.10;;;4.60;;
23490;SDS011;14683;50.038;8.078;2023-08-24T17:55:37;5.90;;;4.28;;
23490;SDS011;14683;50.038;8.078;2023-08-24T17:58:38;5.45;;;4.95;;
23490;SDS011;14683;50.038;8.078;2023-08-24T18:01:39;6.63;;;4.32;;
23490;SDS011;14683;50.038;8.078;2023-08-24T18:04:40;8.50;;;5.03;;
23490;SDS011;14683;50.038;8.078;2023-08-24T18:07:44;6.88;;;4.53;;
23490;SDS011;14683;50.038;8.078;2023-08-24T18:10:45;5.93;;;4.78;;
23490;SDS011;14683;50.038;8.078;2023-08-24T18:13:47;5.47;;;4.93;;
23490;SDS011;14683;50.038;8.078;2023-08-24T18:16:48;5.78;;;5.15;;
23490;SDS011;14683;50.038;8.078;2023-08-24T18:19:50;6.63;;;4.72;;
23490;SDS011;14683;50.038;8.078;2023-08-24T18:22:51;4.78;;;4.30;;
23490;SDS011;14683;50.038;8.078;2023-08-24T18:25:52;5.18;;;4.70;;
23490;SDS011;14683;50.038;8.078;2023-08-24T18:28:53;5.68;;;4.60;;
23490;SDS011;14683;50.038;8.078;2023-08-24T18:31:54;6.93;;;4.95;;
23490;SDS011;14683;50.038;8.078;2023-08-24T18:34:55;7.35;;;5.13;;
23490;SDS011;14683;50.038;8.078;2023-08-24T18:37:58;6.20;;;4.70;;
23490;SDS011;14683;50.038;8.078;2023-08-24T18:40:59;6.45;;;4.80;;
23490;SDS011;14683;50.038;8.078;2023-08-24T18:44:01;8.23;;;5.28;;
23490;SDS011;14683;50.038;8.078;2023-08-24T18:47:04;6.82;;;4.65;;
23490;SDS011;14683;50.038;8.078;2023-08-24T18:50:05;8.35;;;5.13;;
23490;SDS011;14683;50.038;8.078;2023-08-24T18:53:07;6.68;;;4.40;;
23490;SDS011;14683;50.038;8.078;2023-08-24T18:56:08;8.98;;;4.95;;
23490;SDS011;14683;50.038;8.078;2023-08-24T18:59:09;5.50;;;4.72;;
23490;SDS011;14683;50.038;8.078;2023-08-24T19:02:10;6.72;;;4.93;;
23490;SDS011;14683;50.038;8.078;2023-08-24T19:05:14;6.57;;;5.05;;
23490;SDS011;14683;50.038;8.078;2023-08-24T19:08:15;6.00;;;5.40;;
23490;SDS011;14683;50.038;8.078;2023-08-24T19:11:18;7.55;;;4.90;;
23490;SDS011;14683;50.038;8.078;2023-08-24T19:14:19;6.18;;;5.20;;
23490;SDS011;14683;50.038;8.078;2023-08-24T19:17:20;10.32;;;5.57;;
23490;SDS011;14683;50.038;8.078;2023-08-24T19:20:21;6.90;;;5.13;;
23490;SDS011;14683;50.038;8.078;2023-08-24T19:23:23;6.18;;;5.65;;
23490;SDS011;14683;50.038;8.078;2023-08-24T19:26:24;7.30;;;5.45;;
23490;SDS011;14683;50.038;8.078;2023-08-24T19:29:25;6.00;;;5.50;;
23490;SDS011;14683;50.038;8.078;2023-08-24T19:32:26;7.20;;;5.78;;
23490;SDS011;14683;50.038;8.078;2023-08-24T19:35:28;5.97;;;5.38;;
23490;SDS011;14683;50.038;8.078;2023-08-24T19:38:30;5.65;;;5.13;;
23490;SDS011;14683;50.038;8.078;2023-08-24T19:41:31;7.55;;;5.78;;
23490;SDS011;14683;50.038;8.078;2023-08-24T19:44:32;7.93;;;5.50;;
23490;SDS011;14683;50.038;8.078;2023-08-24T19:47:33;5.75;;;5.13;;
23490;SDS011;14683;50.038;8.078;2023-08-24T19:50:34;6.53;;;5.60;;
23490;SDS011;14683;50.038;8.078;2023-08-24T19:53:35;9.90;;;5.82;;
23490;SDS011;14683;50.038;8.078;2023-08-24T19:56:36;7.93;;;5.72;;
23490;SDS011;14683;50.038;8.078;2023-08-24T19:59:37;6.10;;;5.45;;
23490;SDS011;14683;50.038;8.078;2023-08-24T20:02:39;6.75;;;5.60;;
23490;SDS011;14683;50.038;8.078;2023-08-24T20:05:41;5.85;;;5.18;;
23490;SDS011;14683;50.038;8.078;2023-08-24T20:08:42;7.43;;;6.10;;
23490;SDS011;14683;50.038;8.078;2023-08-24T20:11:43;6.47;;;5.88;;
23490;SDS011;14683;50.038;8.078;2023-08-24T20:14:44;8.63;;;7.00;;
23490;SDS011;14683;50.038;8.078;2023-08-24T20:17:46;7.20;;;6.38;;
23490;SDS011;14683;50.038;8.078;2023-08-24T20:20:49;9.80;;;7.05;;
23490;SDS011;14683;50.038;8.078;2023-08-24T20:23:53;8.13;;;6.25;;
23490;SDS011;14683;50.038;8.078;2023-08-24T20:26:54;8.20;;;6.35;;
23490;SDS011;14683;50.038;8.078;2023-08-24T20:29:55;6.55;;;5.75;;
23490;SDS011;14683;50.038;8.078;2023-08-24T20:32:56;6.53;;;5.82;;
23490;SDS011;14683;50.038;8.078;2023-08-24T20:35:58;7.32;;;5.88;;
23490;SDS011;14683;50.038;8.078;2023-08-24T20:39:01;6.32;;;5.72;;
23490;SDS011;14683;50.038;8.078;2023-08-24T20:42:15;7.13;;;6.18;;
23490;SDS011;14683;50.038;8.078;2023-08-24T20:45:23;7.18;;;6.47;;
23490;SDS011;14683;50.038;8.078;2023-08-24T20:48:29;6.70;;;6.05;;
23490;SDS011;14683;50.038;8.078;2023-08-24T20:51:30;10.52;;;6.63;;
23490;SDS011;14683;50.038;8.078;2023-08-24T20:54:32;6.95;;;6.35;;
23490;SDS011;14683;50.038;8.078;2023-08-24T20:57:33;8.68;;;7.78;;
